Time;durP1;ratioP1;P1;durP2;ratioP2;P2;SDS_P1;SDS_P2;PMS_P1;PMS_P2;Temp;Humidity;BMP_temperature;BMP_pressure;BME280_temperature;BME280_humidity;BME280_pressure;Samples;Min_cycle;Max_cycle;Signal;HPM_P1;HPM_P2
2023/11/05 00:02:36;;;;;;;0.80;0.80;;;13.40;38.40;;;;;;10260003;28;20231;-69
2023/11/05 00:07:39;;;;;;;3.07;0.90;;;13.30;38.50;;;;;;10265379;28;20247;-72
2023/11/05 00:12:43;;;;;;;0.70;0.70;;;13.30;38.60;;;;;;10265518;28;20759;-73
2023/11/05 00:17:47;;;;;;;0.73;0.73;;;13.30;39.30;;;;;;10261378;28;20234;-72
2023/11/05 00:22:50;;;;;;;0.70;0.70;;;13.20;38.70;;;;;;10260191;28;20232;-72
2023/11/05 00:27:54;;;;;;;0.80;0.80;;;13.20;38.70;;;;;;10265835;28;20220;-72
2023/11/05 00:32:57;;;;;;;0.70;0.70;;;13.20;38.70;;;;;;10260028;28;20228;-71
2023/11/05 00:38:01;;;;;;;0.70;0.70;;;13.20;38.70;;;;;;10260156;28;20607;-71
2023/11/05 00:43:05;;;;;;;0.60;0.60;;;13.20;38.70;;;;;;10262419;28;20716;-69
2023/11/05 00:48:08;;;;;;;0.70;0.70;;;13.20;38.60;;;;;;10262867;28;20762;-69
2023/11/05 00:53:11;;;;;;;0.60;0.60;;;13.20;38.70;;;;;;10260539;28;20697;-72
2023/11/05 00:58:16;;;;;;;0.60;0.60;;;13.20;38.70;;;;;;10263824;28;20263;-69
2023/11/05 01:03:20;;;;;;;0.60;0.60;;;13.20;38.60;;;;;;10261983;28;20323;-69
2023/11/05 01:08:23;;;;;;;1.07;0.60;;;13.30;38.70;;;;;;10262527;28;20656;-69
2023/11/05 01:13:28;;;;;;;0.60;0.60;;;13.20;38.60;;;;;;10259401;28;20228;-69
2023/11/05 01:18:31;;;;;;;0.60;0.60;;;13.30;38.50;;;;;;10259821;28;20239;-73
2023/11/05 01:23:34;;;;;;;0.60;0.60;;;13.30;38.70;;;;;;10264105;28;20323;-73
2023/11/05 01:28:40;;;;;;;0.57;0.57;;;13.30;38.60;;;;;;10264939;28;20231;-72
2023/11/05 01:33:44;;;;;;;0.60;0.60;;;13.30;38.60;;;;;;10253373;28;20318;-72
2023/11/05 01:38:47;;;;;;;0.53;0.53;;;13.30;38.60;;;;;;10264639;28;20230;-73
2023/11/05 01:43:52;;;;;;;1.30;0.80;;;13.30;38.50;;;;;;10267053;28;20223;-73
2023/11/05 01:48:58;;;;;;;0.60;0.60;;;13.30;38.30;;;;;;10270801;28;20720;-72
2023/11/05 01:54:02;;;;;;;0.60;0.60;;;13.20;38.20;;;;;;10271013;28;20230;-72
2023/11/05 01:59:07;;;;;;;0.50;0.50;;;13.20;38.50;;;;;;10264925;28;20753;-74
2023/11/05 02:04:10;;;;;;;0.50;0.50;;;13.20;38.60;;;;;;10271500;28;20262;-72
2023/11/05 02:09:14;;;;;;;0.93;0.50;;;13.10;38.60;;;;;;10264980;28;20282;-73
2023/11/05 02:14:19;;;;;;;0.50;0.50;;;13.10;38.60;;;;;;10265758;28;20242;-73
2023/11/05 02:19:22;;;;;;;0.40;0.40;;;13.10;38.70;;;;;;10265371;28;20239;-73
2023/11/05 02:24:27;;;;;;;0.43;0.43;;;13.20;38.60;;;;;;10266747;28;20235;-72
2023/11/05 02:29:30;;;;;;;0.50;0.50;;;13.20;38.60;;;;;;10267182;28;20238;-72
2023/11/05 02:34:34;;;;;;;0.60;0.60;;;13.20;38.60;;;;;;10261134;28;20724;-72
2023/11/05 02:39:38;;;;;;;0.80;0.80;;;13.30;38.50;;;;;;10266564;28;20263;-72
2023/11/05 02:44:41;;;;;;;0.70;0.70;;;13.30;38.30;;;;;;10263117;28;20327;-72
2023/11/05 02:49:45;;;;;;;0.53;0.53;;;13.30;38.10;;;;;;10267520;28;20666;-69
2023/11/05 02:54:49;;;;;;;0.50;0.50;;;13.30;37.90;;;;;;10265727;28;20230;-72
2023/11/05 02:59:52;;;;;;;0.50;0.50;;;13.20;37.90;;;;;;10264401;28;21324;-72
2023/11/05 03:04:58;;;;;;;0.77;0.50;;;13.10;37.90;;;;;;10264230;28;20227;-73
2023/11/05 03:10:03;;;;;;;2.17;0.50;;;13.10;37.90;;;;;;10262928;28;20294;-69
2023/11/05 03:15:07;;;;;;;0.60;0.60;;;13.10;38.00;;;;;;10261736;28;20287;-73
2023/11/05 03:20:10;;;;;;;0.43;0.43;;;13.00;38.10;;;;;;10265912;28;20243;-69
2023/11/05 03:25:15;;;;;;;0.40;0.40;;;12.90;38.00;;;;;;10264600;28;20232;-69
2023/11/05 03:30:18;;;;;;;0.47;0.47;;;12.80;38.10;;;;;;10262566;28;20228;-69
2023/11/05 03:35:21;;;;;;;0.43;0.43;;;12.80;38.10;;;;;;10260744;28;20808;-69
2023/11/05 03:40:26;;;;;;;0.60;0.60;;;12.70;38.20;;;;;;10263939;28;20246;-73
2023/11/05 03:45:29;;;;;;;0.90;0.90;;;12.70;38.40;;;;;;10263658;28;20234;-73
2023/11/05 03:50:34;;;;;;;1.00;1.00;;;12.70;38.30;;;;;;10261463;28;20279;-73
2023/11/05 03:55:38;;;;;;;0.80;0.80;;;12.70;38.90;;;;;;10257743;28;20232;-73
2023/11/05 04:00:42;;;;;;;0.90;0.90;;;12.70;38.20;;;;;;10255438;28;20907;-71
2023/11/05 04:05:45;;;;;;;0.60;0.60;;;12.70;38.20;;;;;;10259818;28;20830;-71
2023/11/05 04:10:50;;;;;;;1.20;0.90;;;12.70;38.10;;;;;;10261767;28;20222;-72
2023/11/05 04:15:53;;;;;;;0.90;0.90;;;12.60;37.80;;;;;;10258346;28;20608;-72
2023/11/05 04:20:56;;;;;;;0.50;0.50;;;12.60;37.90;;;;;;10263413;28;21222;-73
2023/11/05 04:26:00;;;;;;;0.50;0.50;;;12.60;37.80;;;;;;10260220;28;21041;-72
2023/11/05 04:31:04;;;;;;;0.40;0.40;;;12.50;37.80;;;;;;10258012;28;20226;-69
2023/11/05 04:36:08;;;;;;;0.50;0.50;;;12.40;38.10;;;;;;10261501;28;20757;-69
2023/11/05 04:41:12;;;;;;;0.57;0.57;;;12.30;38.40;;;;;;10254494;28;20239;-72
2023/11/05 04:46:16;;;;;;;0.70;0.70;;;12.20;38.60;;;;;;10261636;28;20251;-72
2023/11/05 04:51:19;;;;;;;0.80;0.80;;;12.20;38.70;;;;;;10265170;28;20286;-73
2023/11/05 04:56:23;;;;;;;0.80;0.80;;;12.10;38.80;;;;;;10260131;28;20765;-73
2023/11/05 05:01:27;;;;;;;0.77;0.77;;;12.10;38.80;;;;;;10262676;28;20231;-73
2023/11/05 05:06:30;;;;;;;0.60;0.60;;;12.20;38.90;;;;;;10261245;28;20239;-73
2023/11/05 05:11:35;;;;;;;0.57;0.57;;;12.30;39.00;;;;;;10258692;28;20237;-69
2023/11/05 05:16:38;;;;;;;0.70;0.70;;;12.30;38.80;;;;;;10259407;28;20944;-73
2023/11/05 05:21:45;;;;;;;0.97;0.90;;;12.30;38.80;;;;;;10261835;28;20786;-72
2023/11/05 05:26:50;;;;;;;0.60;0.60;;;12.30;38.60;;;;;;10262290;28;20258;-71
2023/11/05 05:31:53;;;;;;;0.70;0.70;;;12.30;38.60;;;;;;10259987;28;20725;-72
2023/11/05 05:36:56;;;;;;;0.67;0.60;;;12.30;38.60;;;;;;10260537;28;20236;-72
2023/11/05 05:42:03;;;;;;;0.57;0.57;;;12.30;38.60;;;;;;10256800;28;20240;-73
2023/11/05 05:47:07;;;;;;;0.70;0.70;;;12.30;38.60;;;;;;10255345;28;20247;-69
2023/11/05 05:52:11;;;;;;;1.10;0.83;;;12.30;38.70;;;;;;10256113;28;20339;-69
2023/11/05 05:57:16;;;;;;;1.80;1.70;;;12.30;38.70;;;;;;10257062;28;20301;-71
2023/11/05 06:02:20;;;;;;;0.80;0.80;;;12.20;38.70;;;;;;10261472;28;20216;-72
2023/11/05 06:07:25;;;;;;;2.30;2.10;;;12.20;38.80;;;;;;10259284;28;20310;-73
2023/11/05 06:12:30;;;;;;;2.80;2.60;;;12.10;38.90;;;;;;10259266;28;20231;-73
2023/11/05 06:17:33;;;;;;;1.50;1.40;;;12.10;39.70;;;;;;10259767;28;20310;-73
2023/11/05 06:22:37;;;;;;;2.70;2.50;;;12.20;39.00;;;;;;10261392;28;20231;-73
2023/11/05 06:27:43;;;;;;;2.40;2.20;;;12.20;39.10;;;;;;10263834;28;20228;-73
2023/11/05 06:32:46;;;;;;;1.50;1.40;;;12.20;39.00;;;;;;10261256;28;20607;-73
2023/11/05 06:37:50;;;;;;;1.10;1.00;;;12.20;39.00;;;;;;10267325;28;20227;-72
2023/11/05 06:42:54;;;;;;;1.20;1.10;;;12.20;39.00;;;;;;10265479;28;21400;-72
2023/11/05 06:47:57;;;;;;;2.70;2.50;;;12.20;39.10;;;;;;10263535;28;20228;-73
2023/11/05 06:53:01;;;;;;;2.10;1.97;;;12.30;39.20;;;;;;10267030;28;20260;-72
2023/11/05 06:58:05;;;;;;;2.27;2.17;;;12.30;39.10;;;;;;10259224;28;20227;-72
2023/11/05 07:03:08;;;;;;;2.03;1.30;;;12.30;39.20;;;;;;10264219;28;20232;-69
2023/11/05 07:08:12;;;;;;;0.90;0.90;;;12.30;39.10;;;;;;10264332;28;20235;-69
2023/11/05 07:13:16;;;;;;;2.00;1.90;;;12.20;39.20;;;;;;10263833;28;20602;-69
2023/11/05 07:18:19;;;;;;;1.40;1.40;;;12.30;39.50;;;;;;10265847;28;20251;-71
2023/11/05 07:23:23;;;;;;;1.00;0.90;;;12.30;39.40;;;;;;10265932;28;20227;-71
2023/11/05 07:28:27;;;;;;;1.80;1.70;;;12.40;39.50;;;;;;10264704;28;20231;-73
2023/11/05 07:33:31;;;;;;;1.70;1.60;;;12.40;39.50;;;;;;10264952;28;20223;-73
2023/11/05 07:38:34;;;;;;;6.57;4.33;;;12.40;39.50;;;;;;10261038;28;20228;-73
2023/11/05 07:43:39;;;;;;;7.47;4.80;;;12.40;39.50;;;;;;10265413;28;20729;-72
2023/11/05 07:48:42;;;;;;;6.30;4.37;;;12.50;39.50;;;;;;10263210;28;20286;-69
2023/11/05 07:53:46;;;;;;;5.30;3.50;;;12.50;39.50;;;;;;10257405;28;20228;-69
2023/11/05 07:58:50;;;;;;;4.77;3.70;;;12.60;39.50;;;;;;10263067;28;20375;-71
2023/11/05 08:03:54;;;;;;;3.70;2.73;;;12.60;39.50;;;;;;10263052;28;20298;-71
2023/11/05 08:08:57;;;;;;;3.47;2.97;;;12.70;39.60;;;;;;10258910;28;20232;-69
2023/11/05 08:14:02;;;;;;;2.90;2.30;;;12.80;39.70;;;;;;10261814;28;20227;-69
2023/11/05 08:19:05;;;;;;;2.90;2.60;;;12.80;39.60;;;;;;10262338;28;20945;-69
2023/11/05 08:24:08;;;;;;;3.70;1.60;;;12.90;39.70;;;;;;10261212;28;20759;-70
2023/11/05 08:29:14;;;;;;;7.73;3.20;;;12.90;39.70;;;;;;10260669;28;20315;-69
2023/11/05 08:34:18;;;;;;;2.53;2.33;;;13.00;39.60;;;;;;10258493;28;20322;-69
2023/11/05 08:39:21;;;;;;;2.73;2.07;;;13.00;39.60;;;;;;10255939;28;20223;-69
2023/11/05 08:44:26;;;;;;;1.70;1.60;;;13.00;39.30;;;;;;10258492;28;20930;-70
2023/11/05 08:49:29;;;;;;;1.93;1.73;;;13.10;39.30;;;;;;10256928;28;21065;-70
2023/11/05 08:54:33;;;;;;;2.20;2.00;;;13.10;39.30;;;;;;10260015;28;20255;-69
2023/11/05 08:59:38;;;;;;;1.23;1.20;;;13.20;39.20;;;;;;10258503;28;20226;-70
2023/11/05 09:04:41;;;;;;;1.60;1.50;;;13.20;39.10;;;;;;10257662;28;20220;-69
2023/11/05 09:09:45;;;;;;;1.30;1.20;;;13.20;39.30;;;;;;10260383;28;20313;-71
2023/11/05 09:14:50;;;;;;;0.90;0.90;;;13.30;39.30;;;;;;10259967;28;20306;-71
2023/11/05 09:19:53;;;;;;;1.30;1.20;;;13.40;39.10;;;;;;10260308;28;20239;-71
2023/11/05 09:25:02;;;;;;;1.87;1.40;;;13.50;39.20;;;;;;10258935;28;20220;-71
2023/11/05 09:30:11;;;;;;;0.80;0.80;;;13.60;39.10;;;;;;10260399;28;20231;-69
2023/11/05 09:35:16;;;;;;;0.70;0.60;;;13.70;38.60;;;;;;10256810;28;20693;-69
2023/11/05 09:40:20;;;;;;;0.50;0.50;;;13.80;38.80;;;;;;10261591;28;20231;-69
2023/11/05 09:45:27;;;;;;;0.70;0.40;;;14.10;38.70;;;;;;10260642;28;20235;-70
2023/11/05 09:50:32;;;;;;;0.57;0.50;;;14.40;37.70;;;;;;10259214;28;20227;-72
2023/11/05 09:55:35;;;;;;;0.47;0.47;;;14.70;38.30;;;;;;10252320;28;21122;-73
2023/11/05 10:00:40;;;;;;;0.40;0.40;;;15.00;38.10;;;;;;10263566;28;20507;-73
2023/11/05 10:05:44;;;;;;;1.70;0.43;;;15.20;37.70;;;;;;10264589;28;20241;-73
2023/11/05 10:10:48;;;;;;;0.90;0.30;;;15.40;37.50;;;;;;10268780;28;20587;-69
2023/11/05 10:15:53;;;;;;;0.30;0.30;;;15.50;37.20;;;;;;10262873;28;20742;-72
2023/11/05 10:20:58;;;;;;;1.13;0.50;;;15.60;36.60;;;;;;10257417;28;20223;-72
2023/11/05 10:26:02;;;;;;;0.60;0.40;;;15.60;36.60;;;;;;10264116;28;20219;-72
2023/11/05 10:31:10;;;;;;;0.50;0.50;;;15.60;36.60;;;;;;10259551;28;20234;-73
2023/11/05 10:36:13;;;;;;;0.87;0.63;;;15.60;36.00;;;;;;10268737;28;20224;-74
2023/11/05 10:41:18;;;;;;;0.97;0.60;;;15.60;36.00;;;;;;10264901;28;20934;-74
2023/11/05 10:46:22;;;;;;;1.90;1.70;;;15.50;35.70;;;;;;10263669;28;20246;-72
2023/11/05 10:51:26;;;;;;;0.90;0.80;;;15.50;35.90;;;;;;10266202;28;20236;-74
2023/11/05 10:56:32;;;;;;;2.83;0.90;;;15.60;37.10;;;;;;10268780;28;21455;-74
2023/11/05 11:01:39;;;;;;;0.90;0.90;;;15.80;36.10;;;;;;10260667;28;20795;-74
2023/11/05 11:06:45;;;;;;;1.40;0.70;;;16.00;34.90;;;;;;10264225;28;20239;-74
2023/11/05 11:11:48;;;;;;;0.77;0.60;;;16.10;34.40;;;;;;10259398;28;20228;-73
2023/11/05 11:16:54;;;;;;;1.57;0.50;;;16.20;35.00;;;;;;10263081;28;20323;-73
2023/11/05 11:22:03;;;;;;;1.13;0.80;;;16.30;34.60;;;;;;10261726;28;20581;-70
2023/11/05 11:27:09;;;;;;;0.90;0.50;;;16.30;33.90;;;;;;10261815;28;20234;-72
2023/11/05 11:32:16;;;;;;;0.50;0.50;;;16.20;34.50;;;;;;10263372;28;20374;-72
2023/11/05 11:37:19;;;;;;;0.53;0.53;;;16.10;33.70;;;;;;10261781;28;20615;-72
2023/11/05 11:42:23;;;;;;;0.50;0.50;;;16.10;35.20;;;;;;10260099;28;20242;-70
2023/11/05 11:47:29;;;;;;;0.57;0.50;;;16.10;35.30;;;;;;10261871;28;20709;-73
2023/11/05 11:52:33;;;;;;;0.77;0.50;;;16.20;35.20;;;;;;10254205;28;20533;-73
2023/11/05 11:57:37;;;;;;;0.40;0.40;;;16.30;35.20;;;;;;10256824;28;20232;-72
2023/11/05 12:02:42;;;;;;;2.60;0.50;;;16.40;35.00;;;;;;10259448;28;20239;-73
2023/11/05 12:07:46;;;;;;;0.50;0.50;;;16.40;34.90;;;;;;10263287;28;20303;-73
2023/11/05 12:12:50;;;;;;;0.50;0.50;;;16.40;35.20;;;;;;10255006;28;20303;-78
2023/11/05 12:17:56;;;;;;;0.50;0.50;;;16.40;34.50;;;;;;10261047;28;20231;-73
2023/11/05 12:22:59;;;;;;;1.50;0.73;;;16.50;34.20;;;;;;10261448;28;20706;-73
2023/11/05 12:28:02;;;;;;;1.23;0.60;;;16.40;34.30;;;;;;10261642;28;20238;-70
2023/11/05 12:33:08;;;;;;;0.83;0.30;;;16.50;34.50;;;;;;10255959;28;20219;-74
2023/11/05 12:38:11;;;;;;;1.33;0.60;;;16.50;34.30;;;;;;10262719;28;20311;-74
2023/11/05 12:43:14;;;;;;;0.40;0.40;;;16.50;34.70;;;;;;10254027;28;20252;-74
2023/11/05 12:48:19;;;;;;;1.27;0.50;;;16.50;34.50;;;;;;10248682;28;20247;-73
2023/11/05 12:53:22;;;;;;;0.30;0.30;;;16.50;34.40;;;;;;10254910;28;20227;-73
2023/11/05 12:58:26;;;;;;;0.50;0.40;;;16.40;34.70;;;;;;10257731;28;20235;-73
2023/11/05 13:03:31;;;;;;;0.50;0.50;;;16.40;34.50;;;;;;10260567;28;20314;-72
2023/11/05 13:08:38;;;;;;;0.80;0.80;;;16.30;34.60;;;;;;10257065;28;20238;-73
2023/11/05 13:13:42;;;;;;;0.87;0.50;;;16.30;34.70;;;;;;10253686;28;20232;-73
2023/11/05 13:18:46;;;;;;;0.63;0.40;;;16.40;34.90;;;;;;10257381;28;20228;-72
2023/11/05 13:23:49;;;;;;;0.60;0.60;;;16.50;34.60;;;;;;10255206;28;20850;-72
2023/11/05 13:28:53;;;;;;;0.50;0.50;;;16.50;34.40;;;;;;10256901;28;20242;-74
2023/11/05 13:33:59;;;;;;;1.13;0.50;;;16.50;33.80;;;;;;10259056;28;20675;-73
2023/11/05 13:39:04;;;;;;;0.60;0.50;;;16.50;33.70;;;;;;10265224;28;20223;-73
2023/11/05 13:44:08;;;;;;;0.50;0.50;;;16.50;33.60;;;;;;10262672;28;20335;-75
2023/11/05 13:49:13;;;;;;;0.57;0.40;;;16.50;34.00;;;;;;10258110;28;20804;-73
2023/11/05 13:54:21;;;;;;;1.00;0.50;;;16.50;33.80;;;;;;10254703;28;20843;-69
2023/11/05 13:59:24;;;;;;;0.70;0.50;;;16.50;34.30;;;;;;10257577;28;21131;-69
2023/11/05 14:04:29;;;;;;;0.70;0.70;;;16.50;34.40;;;;;;10254935;28;20266;-73
2023/11/05 14:09:33;;;;;;;1.10;1.00;;;16.40;34.40;;;;;;10256342;28;20585;-69
2023/11/05 14:14:36;;;;;;;0.80;0.80;;;16.40;34.70;;;;;;10256672;28;20380;-69
2023/11/05 14:19:41;;;;;;;0.50;0.50;;;16.40;34.20;;;;;;10256091;28;20242;-72
2023/11/05 14:24:44;;;;;;;0.60;0.60;;;16.30;34.10;;;;;;10253756;28;21052;-72
2023/11/05 14:29:47;;;;;;;1.80;1.10;;;16.30;34.40;;;;;;10251335;28;20235;-74
2023/11/05 14:34:52;;;;;;;0.70;0.70;;;16.20;35.10;;;;;;10254772;28;20574;-75
2023/11/05 14:39:55;;;;;;;1.17;0.60;;;16.00;35.20;;;;;;10258668;28;20345;-75
2023/11/05 14:44:59;;;;;;;1.80;1.70;;;15.80;35.40;;;;;;10262624;28;20307;-75
2023/11/05 14:50:07;;;;;;;0.80;0.80;;;15.50;36.30;;;;;;10269095;28;20235;-74
2023/11/05 14:55:10;;;;;;;0.60;0.60;;;15.20;37.10;;;;;;10270326;28;20241;-75
2023/11/05 15:00:17;;;;;;;1.23;0.90;;;15.00;37.00;;;;;;10270319;28;20756;-71
2023/11/05 15:05:23;;;;;;;1.10;1.00;;;14.90;37.60;;;;;;10268785;28;20286;-70
2023/11/05 15:10:28;;;;;;;0.60;0.60;;;14.70;38.00;;;;;;10271110;28;20234;-70
2023/11/05 15:15:31;;;;;;;0.83;0.70;;;14.60;37.70;;;;;;10268473;28;20238;-72
2023/11/05 15:20:36;;;;;;;1.27;0.90;;;14.50;38.10;;;;;;10270802;28;20239;-72
2023/11/05 15:25:39;;;;;;;1.10;0.90;;;14.40;38.70;;;;;;10268271;28;20802;-72
2023/11/05 15:30:44;;;;;;;0.70;0.70;;;14.40;38.40;;;;;;10267247;28;20758;-72
2023/11/05 15:35:49;;;;;;;1.87;0.73;;;14.40;38.60;;;;;;10271136;28;20235;-75
2023/11/05 15:40:52;;;;;;;1.10;0.90;;;14.30;39.00;;;;;;10265338;28;20239;-75
2023/11/05 15:45:56;;;;;;;1.00;1.00;;;14.30;38.80;;;;;;10264298;28;20280;-72
2023/11/05 15:51:06;;;;;;;1.73;1.20;;;14.30;38.80;;;;;;10271124;28;20931;-73
2023/11/05 15:56:09;;;;;;;2.27;1.50;;;14.30;39.10;;;;;;10266812;28;20242;-72
2023/11/05 16:01:13;;;;;;;1.40;1.30;;;14.30;38.80;;;;;;10270686;28;20660;-72
2023/11/05 16:06:17;;;;;;;0.77;0.77;;;14.30;38.70;;;;;;10270076;28;20232;-73
2023/11/05 16:11:21;;;;;;;2.17;1.43;;;14.30;38.90;;;;;;10262176;28;20258;-72
2023/11/05 16:16:24;;;;;;;1.30;1.17;;;14.30;38.50;;;;;;10263119;28;20272;-72
2023/11/05 16:21:29;;;;;;;0.83;0.80;;;14.20;38.40;;;;;;10261885;28;20253;-70
2023/11/05 16:26:34;;;;;;;1.30;1.20;;;14.20;38.70;;;;;;10260965;23;20223;-76
2023/11/05 16:31:38;;;;;;;1.40;1.30;;;14.20;38.80;;;;;;10266889;28;20702;-76
2023/11/05 16:36:43;;;;;;;1.80;1.40;;;14.30;38.50;;;;;;10268773;28;20232;-75
2023/11/05 16:41:46;;;;;;;1.50;1.40;;;14.30;38.40;;;;;;10270168;28;20266;-76
2023/11/05 16:46:49;;;;;;;1.73;1.00;;;14.30;38.20;;;;;;10259183;28;20232;-77
2023/11/05 16:51:56;;;;;;;1.60;1.50;;;14.30;38.10;;;;;;10256657;28;20881;-77
2023/11/05 16:56:59;;;;;;;1.30;1.20;;;14.30;38.20;;;;;;10258719;28;20233;-77
2023/11/05 17:02:02;;;;;;;1.00;1.00;;;14.30;38.00;;;;;;10223022;28;20327;-78
2023/11/05 17:07:07;;;;;;;0.60;0.60;;;14.30;38.10;;;;;;10222815;28;20764;-77
2023/11/05 17:12:10;;;;;;;0.80;0.80;;;14.30;38.20;;;;;;10224730;28;20240;-77
2023/11/05 17:17:13;;;;;;;0.80;0.80;;;14.30;38.00;;;;;;10222053;28;20263;-77
2023/11/05 17:22:18;;;;;;;0.70;0.70;;;14.30;38.10;;;;;;10219900;28;20240;-77
2023/11/05 17:27:22;;;;;;;0.70;0.70;;;14.30;38.00;;;;;;10216319;28;20331;-77
2023/11/05 17:32:25;;;;;;;0.70;0.70;;;14.30;37.80;;;;;;10218207;28;20243;-77
2023/11/05 17:37:29;;;;;;;0.90;0.80;;;14.30;37.90;;;;;;10218606;28;20243;-77
2023/11/05 17:42:33;;;;;;;1.27;1.17;;;14.40;37.80;;;;;;10216349;28;20235;-77
2023/11/05 17:47:40;;;;;;;1.10;1.00;;;14.30;37.70;;;;;;10219451;28;20236;-77
2023/11/05 17:52:45;;;;;;;0.60;0.60;;;14.40;37.80;;;;;;10216553;28;20228;-77
2023/11/05 17:57:48;;;;;;;1.33;0.60;;;14.40;37.80;;;;;;10214673;28;20235;-76
2023/11/05 18:02:54;;;;;;;0.60;0.60;;;14.40;37.80;;;;;;10215173;28;20239;-76
2023/11/05 18:07:59;;;;;;;0.60;0.60;;;14.40;37.70;;;;;;10220199;28;20248;-78
2023/11/05 18:13:04;;;;;;;0.60;0.60;;;14.40;37.70;;;;;;10233278;28;20231;-78
2023/11/05 18:18:07;;;;;;;0.80;0.80;;;14.40;37.70;;;;;;10231293;28;20236;-78
2023/11/05 18:23:12;;;;;;;1.40;0.63;;;14.40;37.70;;;;;;10251207;28;20244;-79
2023/11/05 18:28:15;;;;;;;0.67;0.63;;;14.40;37.60;;;;;;10246236;28;20242;-79
2023/11/05 18:33:19;;;;;;;1.33;0.63;;;14.30;37.50;;;;;;10268171;28;20226;-79
2023/11/05 18:38:23;;;;;;;1.03;0.70;;;14.30;37.60;;;;;;10271200;28;20299;-78
2023/11/05 18:43:26;;;;;;;1.57;0.60;;;14.30;37.70;;;;;;10264356;28;20848;-79
2023/11/05 18:48:29;;;;;;;4.43;0.80;;;14.40;37.70;;;;;;10271160;28;20258;-79
2023/11/05 18:53:35;;;;;;;0.70;0.70;;;14.30;37.70;;;;;;10268531;28;20322;-79
2023/11/05 18:58:38;;;;;;;0.73;0.70;;;14.30;37.90;;;;;;10280400;28;20244;-77
2023/11/05 19:03:42;;;;;;;1.07;0.87;;;14.20;38.00;;;;;;10290202;28;20242;-77
2023/11/05 19:08:47;;;;;;;0.90;0.77;;;14.10;38.30;;;;;;10290108;28;20228;-77
2023/11/05 19:13:52;;;;;;;0.67;0.63;;;14.10;38.40;;;;;;10288508;28;20238;-77
2023/11/05 19:19:15;;;;;;;0.93;0.70;;;14.00;38.30;;;;;;10250734;29;20826;-77
2023/11/05 19:24:21;;;;;;;0.73;0.73;;;13.90;38.10;;;;;;10224493;29;20328;-77
2023/11/05 19:29:25;;;;;;;0.83;0.70;;;13.80;38.10;;;;;;10207298;29;20715;-77
2023/11/05 19:34:29;;;;;;;0.87;0.80;;;13.70;38.20;;;;;;10207621;29;20236;-78
2023/11/05 19:39:36;;;;;;;1.37;0.70;;;13.60;38.20;;;;;;10206060;29;20695;-77
2023/11/05 19:44:40;;;;;;;1.03;0.87;;;13.60;38.80;;;;;;10212833;29;20295;-77
2023/11/05 19:49:48;;;;;;;1.37;0.93;;;13.50;38.60;;;;;;10233004;28;20236;-76
2023/11/05 19:55:01;;;;;;;2.53;0.93;;;13.50;38.90;;;;;;10243943;28;20230;-77
2023/11/05 20:00:05;;;;;;;1.83;1.00;;;13.50;39.20;;;;;;10242670;28;20232;-77
2023/11/05 20:05:16;;;;;;;0.90;0.90;;;13.40;38.90;;;;;;10252839;28;20600;-76
2023/11/05 20:10:26;;;;;;;1.30;0.83;;;13.40;39.40;;;;;;10283786;28;20236;-77
2023/11/05 20:15:32;;;;;;;0.83;0.70;;;13.40;39.10;;;;;;10284762;28;20314;-76
2023/11/05 20:20:39;;;;;;;0.67;0.67;;;13.40;39.10;;;;;;10283779;28;20234;-76
2023/11/05 20:25:44;;;;;;;0.80;0.80;;;13.40;39.00;;;;;;10285543;28;20637;-77
2023/11/05 20:30:47;;;;;;;2.27;0.80;;;13.40;39.00;;;;;;10289872;28;20227;-77
2023/11/05 20:35:59;;;;;;;0.90;0.90;;;13.40;39.00;;;;;;10290913;28;20327;-77
2023/11/05 20:41:09;;;;;;;0.80;0.80;;;13.50;39.50;;;;;;10290138;28;20594;-78
2023/11/05 20:46:13;;;;;;;1.20;0.80;;;13.50;39.40;;;;;;10289390;28;20239;-77
2023/11/05 20:51:17;;;;;;;1.90;0.90;;;13.50;38.90;;;;;;10291657;28;20245;-78
2023/11/05 20:56:28;;;;;;;1.80;0.90;;;13.50;39.40;;;;;;10291983;28;20235;-78
2023/11/05 21:01:32;;;;;;;2.47;0.97;;;13.40;40.40;;;;;;10293892;28;20640;-78
2023/11/05 21:06:36;;;;;;;0.90;0.77;;;13.30;39.50;;;;;;10291952;28;20782;-78
2023/11/05 21:11:41;;;;;;;1.20;0.90;;;13.20;39.60;;;;;;10291224;28;20662;-78
2023/11/05 21:16:45;;;;;;;1.03;0.97;;;13.20;40.10;;;;;;10291261;28;20228;-78
2023/11/05 21:21:48;;;;;;;1.53;0.90;;;13.20;40.10;;;;;;10292052;28;20228;-78
2023/11/05 21:26:53;;;;;;;0.80;0.80;;;13.10;39.80;;;;;;10290717;28;20315;-79
2023/11/05 21:31:56;;;;;;;0.80;0.80;;;13.10;40.00;;;;;;10292821;28;20718;-78
2023/11/05 21:36:59;;;;;;;1.53;0.97;;;13.10;39.70;;;;;;10291863;28;20279;-78
2023/11/05 21:42:05;;;;;;;1.83;0.90;;;13.10;39.70;;;;;;10291665;28;20298;-78
2023/11/05 21:47:10;;;;;;;1.97;1.20;;;13.10;39.80;;;;;;10292385;28;20690;-78
2023/11/05 21:52:17;;;;;;;1.90;0.90;;;13.00;39.50;;;;;;10276466;28;20239;-78
2023/11/05 21:57:22;;;;;;;1.23;1.00;;;12.90;39.50;;;;;;10296339;28;20240;-78
2023/11/05 22:02:25;;;;;;;1.30;0.80;;;12.90;39.50;;;;;;10288604;28;20231;-77
2023/11/05 22:07:29;;;;;;;1.03;0.80;;;12.80;39.20;;;;;;10294797;28;20235;-77
2023/11/05 22:12:34;;;;;;;1.40;1.00;;;12.80;39.00;;;;;;10295553;28;20291;-78
2023/11/05 22:17:37;;;;;;;2.13;0.97;;;12.90;38.90;;;;;;10293420;28;20319;-78
2023/11/05 22:22:40;;;;;;;1.83;0.80;;;12.90;39.00;;;;;;10295325;28;20230;-76
2023/11/05 22:27:45;;;;;;;2.17;1.10;;;13.00;39.00;;;;;;10292807;28;20248;-78
2023/11/05 22:32:48;;;;;;;2.73;0.90;;;13.00;38.90;;;;;;10295045;28;20215;-77
2023/11/05 22:37:51;;;;;;;1.70;0.90;;;13.10;38.80;;;;;;10296964;28;20710;-78
2023/11/05 22:42:57;;;;;;;0.77;0.70;;;13.10;38.70;;;;;;10296345;28;20228;-78
2023/11/05 22:48:00;;;;;;;1.00;0.80;;;13.10;38.60;;;;;;10298162;28;20227;-78
2023/11/05 22:53:05;;;;;;;1.53;0.80;;;13.10;38.60;;;;;;10298524;28;20220;-78
2023/11/05 22:58:10;;;;;;;1.43;0.90;;;13.10;38.60;;;;;;10300100;28;20236;-78
2023/11/05 23:03:16;;;;;;;2.50;0.90;;;13.00;38.60;;;;;;10299956;28;20936;-77
2023/11/05 23:08:20;;;;;;;1.50;1.00;;;13.00;38.70;;;;;;10284363;28;20235;-78
2023/11/05 23:13:24;;;;;;;1.30;0.80;;;12.90;38.50;;;;;;10297016;28;20255;-78
2023/11/05 23:18:27;;;;;;;1.83;0.90;;;12.80;38.60;;;;;;10302985;28;20314;-78
2023/11/05 23:23:31;;;;;;;1.60;0.83;;;12.80;38.60;;;;;;10298648;28;20232;-78
2023/11/05 23:28:36;;;;;;;2.20;1.00;;;12.80;38.70;;;;;;10290604;28;20315;-78
2023/11/05 23:33:40;;;;;;;1.10;0.80;;;12.80;39.50;;;;;;10297068;28;20259;-78
2023/11/05 23:38:48;;;;;;;2.13;0.90;;;12.70;38.70;;;;;;10303539;28;20236;-79
2023/11/05 23:43:53;;;;;;;2.40;0.90;;;12.70;38.80;;;;;;10296940;28;20248;-78
2023/11/05 23:48:56;;;;;;;1.87;0.90;;;12.70;38.90;;;;;;10294375;28;20223;-78
2023/11/05 23:53:59;;;;;;;1.60;1.07;;;12.70;38.90;;;;;;10295723;28;20232;-78
2023/11/05 23:59:04;;;;;;;1.10;0.90;;;12.70;38.70;;;;;;10305180;28;20254;-78
